createdAt,value
2022-10-07T00:00:19.673Z,79.70
2022-10-07T00:02:51.613Z,79.66
2022-10-07T00:05:23.636Z,79.74
2022-10-07T00:07:55.894Z,79.96
2022-10-07T00:10:28.009Z,80.37
2022-10-07T00:13:01.511Z,80.34
2022-10-07T00:15:33.678Z,80.30
2022-10-07T00:18:05.812Z,80.30
2022-10-07T00:20:39.736Z,80.21
2022-10-07T00:23:11.774Z,81.16
2022-10-07T00:25:43.733Z,80.94
2022-10-07T00:28:15.733Z,81.20
2022-10-07T00:30:47.808Z,81.28
2022-10-07T00:33:19.826Z,81.63
2022-10-07T00:35:51.757Z,81.59
2022-10-07T00:38:23.796Z,81.63
2022-10-07T00:40:55.770Z,81.77
2022-10-07T00:43:31.396Z,81.94
2022-10-07T00:46:21.621Z,81.50
2022-10-07T00:48:54.740Z,81.43
2022-10-07T00:51:27.129Z,81.74
2022-10-07T00:53:59.592Z,81.65
2022-10-07T00:56:32.057Z,81.68
2022-10-07T00:59:05.662Z,81.20
2022-10-07T01:01:38.207Z,81.38
2022-10-07T01:04:12.773Z,81.07
2022-10-07T01:06:45.889Z,81.48
2022-10-07T01:09:20.997Z,81.68
2022-10-07T01:12:14.870Z,81.83
2022-10-07T01:14:55.539Z,81.59
2022-10-07T01:17:36.310Z,81.31
2022-10-07T01:21:08.310Z,81.46
2022-10-07T01:24:09.928Z,81.54
2022-10-07T01:27:14.466Z,80.98
2022-10-07T01:30:08.038Z,81.06
2022-10-07T01:32:55.088Z,80.80
2022-10-07T01:35:33.990Z,80.63
2022-10-07T01:38:09.831Z,80.33
2022-10-07T01:40:57.775Z,80.16
2022-10-07T01:43:30.811Z,80.15
2022-10-07T01:46:03.902Z,80.28
2022-10-07T01:48:35.902Z,79.94
2022-10-07T01:51:09.437Z,79.45
2022-10-07T01:53:55.175Z,79.72
2022-10-07T01:56:55.682Z,79.55
2022-10-07T01:59:34.841Z,80.23
2022-10-07T02:02:46.318Z,79.31
2022-10-07T02:05:34.461Z,79.65
2022-10-07T02:08:26.757Z,79.58
2022-10-07T02:11:27.614Z,80.22
2022-10-07T02:14:14.759Z,79.76
2022-10-07T02:16:47.269Z,79.48
2022-10-07T02:19:29.071Z,79.56
2022-10-07T02:22:04.873Z,79.61
2022-10-07T02:24:39.528Z,79.76
2022-10-07T02:27:16.703Z,80.88
2022-10-07T02:29:53.576Z,80.84
2022-10-07T02:32:27.777Z,80.41
2022-10-07T02:35:06.019Z,80.91
2022-10-07T02:37:39.674Z,80.65
2022-10-07T02:40:12.612Z,80.25
2022-10-07T02:42:58.847Z,80.26
2022-10-07T02:45:50.508Z,80.68
2022-10-07T02:48:48.618Z,80.96
2022-10-07T02:51:27.201Z,80.39
2022-10-07T02:54:03.229Z,80.18
2022-10-07T02:56:37.969Z,80.88
2022-10-07T02:59:13.022Z,80.31
2022-10-07T03:01:49.182Z,80.79
2022-10-07T03:04:23.036Z,80.57
2022-10-07T03:06:55.730Z,80.62
2022-10-07T03:09:29.261Z,80.72
2022-10-07T03:12:01.208Z,80.35
2022-10-07T03:14:35.910Z,80.37
2022-10-07T03:17:07.826Z,80.81
2022-10-07T03:19:40.544Z,81.00
2022-10-07T03:22:12.633Z,80.26
2022-10-07T03:24:44.573Z,80.29
2022-10-07T03:27:16.495Z,80.86
2022-10-07T03:29:48.989Z,81.10
2022-10-07T03:32:20.880Z,80.85
2022-10-07T03:34:54.386Z,80.83
2022-10-07T03:37:26.763Z,80.72
2022-10-07T03:39:58.685Z,80.52
2022-10-07T03:42:30.635Z,80.95
2022-10-07T03:45:02.529Z,80.59
2022-10-07T03:47:34.416Z,81.13
2022-10-07T03:50:06.814Z,81.28
2022-10-07T03:52:38.730Z,81.60
2022-10-07T03:55:10.626Z,81.77
2022-10-07T03:57:55.635Z,81.54
2022-10-07T04:00:30.445Z,81.29
2022-10-07T04:03:02.451Z,81.23
2022-10-07T04:05:38.114Z,81.12
2022-10-07T04:08:12.099Z,81.20
2022-10-07T04:10:44.034Z,81.29
2022-10-07T04:13:15.936Z,81.47
2022-10-07T04:15:49.064Z,82.83
2022-10-07T04:18:21.978Z,82.46
2022-10-07T04:20:53.953Z,82.67
2022-10-07T04:23:25.906Z,82.61
2022-10-07T04:25:57.810Z,82.54
2022-10-07T04:28:29.870Z,82.69
2022-10-07T04:31:05.558Z,82.66
2022-10-07T04:33:42.097Z,82.88
2022-10-07T04:36:14.278Z,82.88
2022-10-07T04:38:50.492Z,82.83
2022-10-07T04:41:22.483Z,82.61
2022-10-07T04:43:57.818Z,82.38
2022-10-07T04:46:30.133Z,82.09
2022-10-07T04:49:02.156Z,82.10
2022-10-07T04:51:34.140Z,82.48
2022-10-07T04:54:06.882Z,82.95
2022-10-07T04:56:38.914Z,82.46
2022-10-07T04:59:11.394Z,83.10
2022-10-07T05:01:43.360Z,82.79
2022-10-07T05:04:15.275Z,82.65
2022-10-07T05:06:47.254Z,82.83
2022-10-07T05:09:19.133Z,83.06
2022-10-07T05:11:55.794Z,83.46
2022-10-07T05:14:27.770Z,83.42
2022-10-07T05:16:59.829Z,83.11
2022-10-07T05:19:31.722Z,83.45
2022-10-07T05:22:03.895Z,82.85
2022-10-07T05:24:35.878Z,82.63
2022-10-07T05:27:07.858Z,83.52
2022-10-07T05:29:40.419Z,83.22
2022-10-07T05:32:12.453Z,83.06
2022-10-07T05:34:45.093Z,84.05
2022-10-07T05:37:17.046Z,83.93
2022-10-07T05:39:48.928Z,84.46
2022-10-07T05:42:20.960Z,84.56
2022-10-07T05:44:52.845Z,84.50
2022-10-07T05:47:24.896Z,84.76
2022-10-07T05:49:58.844Z,84.98
2022-10-07T05:52:30.884Z,84.47
2022-10-07T05:55:03.045Z,84.49
2022-10-07T05:57:34.966Z,84.55
2022-10-07T06:00:08.091Z,84.05
2022-10-07T06:02:40.136Z,84.83
2022-10-07T06:05:12.132Z,84.59
2022-10-07T06:07:44.350Z,84.25
2022-10-07T06:10:35.134Z,83.79
2022-10-07T06:13:09.823Z,83.43
2022-10-07T06:15:41.716Z,83.41
2022-10-07T06:18:13.719Z,84.43
2022-10-07T06:21:01.602Z,83.89
2022-10-07T06:23:34.709Z,83.42
2022-10-07T06:26:15.021Z,83.61
2022-10-07T06:28:47.304Z,83.62
2022-10-07T06:31:25.713Z,83.84
2022-10-07T06:33:57.678Z,83.53
2022-10-07T06:36:29.565Z,83.80
2022-10-07T06:39:01.975Z,82.92
2022-10-07T06:41:34.223Z,83.57
2022-10-07T06:44:06.292Z,83.33
2022-10-07T06:46:38.212Z,82.06
2022-10-07T06:49:10.446Z,82.57
2022-10-07T06:51:42.411Z,81.72
2022-10-07T06:54:14.354Z,81.83
2022-10-07T06:56:46.286Z,81.75
2022-10-07T06:59:18.208Z,81.65
2022-10-07T07:01:50.214Z,81.09
2022-10-07T07:04:22.123Z,81.40
2022-10-07T07:06:54.034Z,81.32
2022-10-07T07:09:26.024Z,80.82
2022-10-07T07:11:58.522Z,81.62
2022-10-07T07:14:30.521Z,80.88
2022-10-07T07:17:02.678Z,81.32
2022-10-07T07:19:34.668Z,80.57
2022-10-07T07:22:08.257Z,80.53
2022-10-07T07:24:40.255Z,80.52
2022-10-07T07:27:14.518Z,80.47
2022-10-07T07:29:47.182Z,80.08
2022-10-07T07:32:19.161Z,79.00
2022-10-07T07:37:43.672Z,77.67
2022-10-07T07:40:16.399Z,76.99
2022-10-07T07:42:49.334Z,75.51
2022-10-07T07:45:21.650Z,74.76
2022-10-07T07:47:53.539Z,73.16
2022-10-07T07:50:27.448Z,72.05
2022-10-07T07:53:02.049Z,70.36
2022-10-07T07:55:34.021Z,70.42
2022-10-07T07:58:11.678Z,69.88
2022-10-07T08:00:44.026Z,68.48
2022-10-07T08:03:16.000Z,68.21
2022-10-07T08:05:50.731Z,69.26
2022-10-07T08:08:22.690Z,67.93
2022-10-07T08:10:54.639Z,65.90
2022-10-07T08:13:26.512Z,66.09
2022-10-07T08:15:59.938Z,67.95
2022-10-07T08:18:32.537Z,68.18
2022-10-07T08:21:06.227Z,68.86
2022-10-07T08:23:39.988Z,69.84
2022-10-07T08:26:11.980Z,69.82
2022-10-07T08:28:44.037Z,70.21
2022-10-07T08:31:18.690Z,69.76
2022-10-07T08:33:50.771Z,70.03
2022-10-07T08:36:25.308Z,70.15
2022-10-07T08:38:57.454Z,70.20
2022-10-07T08:41:54.050Z,70.61
2022-10-07T08:44:36.120Z,70.26
2022-10-07T08:47:28.019Z,70.02
2022-10-07T08:50:08.376Z,69.90
2022-10-07T08:52:50.996Z,69.95
2022-10-07T08:55:52.046Z,70.16
2022-10-07T08:58:35.758Z,69.61
2022-10-07T09:01:22.684Z,68.82
2022-10-07T09:04:18.656Z,68.67
2022-10-07T09:07:18.925Z,68.30
2022-10-07T09:10:00.534Z,67.66
2022-10-07T09:12:51.100Z,68.53
2022-10-07T09:16:04.159Z,67.77
2022-10-07T09:18:54.163Z,67.85
2022-10-07T09:21:50.101Z,66.78
2022-10-07T09:24:28.429Z,67.65
2022-10-07T09:27:09.144Z,67.00
2022-10-07T09:29:41.175Z,65.93
2022-10-07T09:32:17.429Z,65.79
2022-10-07T09:34:49.369Z,64.98
2022-10-07T09:37:27.749Z,64.03
2022-10-07T09:41:00.372Z,63.35
2022-10-07T09:43:34.040Z,64.03
2022-10-07T09:46:06.071Z,64.13
2022-10-07T09:48:52.877Z,62.92
2022-10-07T09:51:27.150Z,62.86
2022-10-07T09:54:03.758Z,62.00
2022-10-07T09:56:43.875Z,62.29
2022-10-07T09:59:29.411Z,61.70
2022-10-07T10:02:13.397Z,61.17
2022-10-07T10:04:55.882Z,60.06
2022-10-07T10:07:36.118Z,58.94
2022-10-07T10:10:30.809Z,55.79
2022-10-07T10:13:06.325Z,47.72
2022-10-07T10:15:42.392Z,42.16
2022-10-07T10:18:33.559Z,37.52
2022-10-07T10:21:32.584Z,34.32
2022-10-07T10:24:14.574Z,34.13
2022-10-07T10:27:23.028Z,33.38
2022-10-07T10:30:08.671Z,34.24
2022-10-07T10:33:12.261Z,38.31
2022-10-07T10:36:02.331Z,40.33
2022-10-07T10:39:11.874Z,42.14
2022-10-07T10:41:53.571Z,44.67
2022-10-07T10:44:47.138Z,46.55
2022-10-07T10:47:43.518Z,48.85
2022-10-07T10:50:37.775Z,49.87
2022-10-07T10:53:21.513Z,50.30
2022-10-07T10:56:02.178Z,49.85
2022-10-07T10:58:58.307Z,49.90
2022-10-07T11:01:37.180Z,51.05
2022-10-07T11:04:24.580Z,51.45
2022-10-07T11:07:02.930Z,51.34
2022-10-07T11:09:44.122Z,49.82
2022-10-07T11:12:39.853Z,49.90
2022-10-07T11:15:23.430Z,49.33
2022-10-07T11:18:01.787Z,48.66
2022-10-07T11:20:48.055Z,48.38
2022-10-07T11:23:41.394Z,46.58
2022-10-07T11:26:37.743Z,47.96
2022-10-07T11:29:29.982Z,47.26
2022-10-07T11:32:45.737Z,48.11
2022-10-07T11:35:38.810Z,48.86
2022-10-07T11:38:10.612Z,48.06
2022-10-07T11:40:50.246Z,47.16
2022-10-07T11:43:38.212Z,45.43
2022-10-07T11:46:22.073Z,45.20
2022-10-07T11:49:12.891Z,44.46
2022-10-07T11:52:03.388Z,44.62
2022-10-07T11:54:45.917Z,45.51
2022-10-07T11:57:26.898Z,45.58
2022-10-07T12:00:08.719Z,46.34
2022-10-07T12:02:45.769Z,47.55
2022-10-07T12:05:36.510Z,47.62
2022-10-07T12:08:34.906Z,46.59
2022-10-07T12:11:12.817Z,47.13
2022-10-07T12:13:55.525Z,47.45
2022-10-07T12:16:30.522Z,47.83
2022-10-07T12:19:06.468Z,47.38
2022-10-07T12:21:58.041Z,47.93
2022-10-07T12:24:38.493Z,48.29
2022-10-07T12:27:27.143Z,48.91
2022-10-07T12:30:02.657Z,49.25
2022-10-07T12:32:46.897Z,48.29
2022-10-07T12:35:37.036Z,48.77
2022-10-07T12:38:26.203Z,48.67
2022-10-07T12:41:43.928Z,48.28
2022-10-07T12:44:26.745Z,48.16
2022-10-07T12:47:12.856Z,47.75
2022-10-07T12:50:17.407Z,50.04
2022-10-07T12:52:54.783Z,49.49
2022-10-07T12:55:33.985Z,48.22
2022-10-07T12:58:58.895Z,46.79
2022-10-07T13:01:59.358Z,47.38
2022-10-07T13:04:51.945Z,47.77
2022-10-07T13:08:15.835Z,48.67
2022-10-07T13:11:17.930Z,48.73
2022-10-07T13:14:11.775Z,48.59
2022-10-07T13:17:12.977Z,48.52
2022-10-07T13:20:35.149Z,47.93
2022-10-07T13:23:34.215Z,49.49
2022-10-07T13:26:07.456Z,48.89
2022-10-07T13:28:49.352Z,48.66
2022-10-07T13:31:28.944Z,49.23
2022-10-07T13:34:15.026Z,49.95
2022-10-07T13:36:46.991Z,49.18
2022-10-07T13:39:22.831Z,48.56
2022-10-07T13:41:58.971Z,48.52
2022-10-07T13:44:32.679Z,48.43
2022-10-07T13:47:07.229Z,48.86
2022-10-07T13:49:43.774Z,48.70
2022-10-07T13:52:35.851Z,49.52
2022-10-07T13:55:26.083Z,49.56
2022-10-07T13:58:02.048Z,48.56
2022-10-07T14:00:42.433Z,48.40
2022-10-07T14:03:15.657Z,48.72
2022-10-07T14:05:53.254Z,48.21
2022-10-07T14:08:29.774Z,48.73
2022-10-07T14:11:10.226Z,47.44
2022-10-07T14:13:43.806Z,48.37
2022-10-07T14:16:22.257Z,48.12
2022-10-07T14:18:54.366Z,48.52
2022-10-07T14:21:28.122Z,48.39
2022-10-07T14:24:09.814Z,48.40
2022-10-07T14:26:44.019Z,48.35
2022-10-07T14:29:35.874Z,48.16
2022-10-07T14:32:37.858Z,48.63
2022-10-07T14:35:19.488Z,49.54
2022-10-07T14:37:51.416Z,49.24
2022-10-07T14:40:24.785Z,48.53
2022-10-07T14:42:57.597Z,49.05
2022-10-07T14:45:30.153Z,49.04
2022-10-07T14:48:02.129Z,48.98
2022-10-07T14:50:34.326Z,49.98
2022-10-07T14:53:06.405Z,50.18
2022-10-07T14:55:39.411Z,51.03
2022-10-07T14:58:11.818Z,51.98
2022-10-07T15:00:44.202Z,50.43
2022-10-07T15:03:23.308Z,50.06
2022-10-07T15:05:55.572Z,50.53
2022-10-07T15:08:27.493Z,51.81
2022-10-07T15:10:59.413Z,51.13
2022-10-07T15:13:31.356Z,51.29
2022-10-07T15:16:03.428Z,51.29
2022-10-07T15:18:37.830Z,50.59
2022-10-07T15:21:11.960Z,50.90
2022-10-07T15:23:45.052Z,50.82
2022-10-07T15:26:17.054Z,51.47
2022-10-07T15:28:55.293Z,51.20
2022-10-07T15:31:30.257Z,52.29
2022-10-07T15:34:02.366Z,51.99
2022-10-07T15:36:34.495Z,51.92
2022-10-07T15:39:07.053Z,52.31
2022-10-07T15:41:42.032Z,51.95
2022-10-07T15:44:20.180Z,51.84
2022-10-07T15:46:54.553Z,52.41
2022-10-07T15:49:27.229Z,52.48
2022-10-07T15:51:59.483Z,51.95
2022-10-07T15:54:32.094Z,53.56
2022-10-07T15:57:04.546Z,52.41
2022-10-07T15:59:36.690Z,51.60
2022-10-07T16:02:21.505Z,52.52
2022-10-07T16:04:53.455Z,52.96
2022-10-07T16:07:25.530Z,53.45
2022-10-07T16:09:57.531Z,53.87
2022-10-07T16:12:29.641Z,53.45
2022-10-07T16:15:03.801Z,54.06
2022-10-07T16:17:35.777Z,54.05
2022-10-07T16:20:11.341Z,54.11
2022-10-07T16:22:43.842Z,54.46
2022-10-07T16:25:16.161Z,55.10
2022-10-07T16:28:06.608Z,54.71
2022-10-07T16:30:44.077Z,54.98
2022-10-07T16:33:16.044Z,54.92
2022-10-07T16:35:48.142Z,55.35
2022-10-07T16:38:20.959Z,55.82
2022-10-07T16:40:54.442Z,55.80
2022-10-07T16:43:26.466Z,55.97
2022-10-07T16:46:03.556Z,56.67
2022-10-07T16:48:41.521Z,57.44
2022-10-07T16:51:28.695Z,58.09
2022-10-07T16:54:01.924Z,58.34
2022-10-07T16:56:35.833Z,58.71
2022-10-07T16:59:10.492Z,58.86
2022-10-07T17:01:42.575Z,59.11
2022-10-07T17:04:14.653Z,58.88
2022-10-07T17:06:47.927Z,59.15
2022-10-07T17:09:21.905Z,58.92
2022-10-07T17:11:54.027Z,59.57
2022-10-07T17:14:27.062Z,59.71
2022-10-07T17:17:00.537Z,59.63
2022-10-07T17:19:33.727Z,59.55
2022-10-07T17:22:05.674Z,60.53
2022-10-07T17:24:37.599Z,60.81
2022-10-07T17:27:09.582Z,60.71
2022-10-07T17:29:41.513Z,60.84
2022-10-07T17:32:14.574Z,59.72
2022-10-07T17:34:46.532Z,60.59
2022-10-07T17:37:18.507Z,59.63
2022-10-07T17:39:50.500Z,60.42
2022-10-07T17:42:22.445Z,60.72
2022-10-07T17:44:55.225Z,61.11
2022-10-07T17:47:27.155Z,61.20
2022-10-07T17:49:59.395Z,60.61
2022-10-07T17:52:33.970Z,61.36
2022-10-07T17:55:07.027Z,61.64
2022-10-07T17:57:39.203Z,61.71
2022-10-07T18:00:11.770Z,62.64
2022-10-07T18:02:43.874Z,62.29
2022-10-07T18:05:16.373Z,61.65
2022-10-07T18:07:48.700Z,62.75
2022-10-07T18:10:20.794Z,62.75
2022-10-07T18:13:11.592Z,62.83
2022-10-07T18:15:43.504Z,63.03
2022-10-07T18:18:15.708Z,63.30
2022-10-07T18:20:48.031Z,63.27
2022-10-07T18:23:20.402Z,62.84
2022-10-07T18:25:52.435Z,63.22
2022-10-07T18:28:25.415Z,63.62
2022-10-07T18:30:57.358Z,63.68
2022-10-07T18:33:33.819Z,63.92
2022-10-07T18:36:13.593Z,63.91
2022-10-07T18:38:46.377Z,64.30
2022-10-07T18:41:19.055Z,64.53
2022-10-07T18:43:55.987Z,64.69
2022-10-07T18:46:27.923Z,64.91
2022-10-07T18:48:59.867Z,65.04
2022-10-07T18:51:31.857Z,65.12
2022-10-07T18:54:03.993Z,65.69
2022-10-07T18:56:40.806Z,65.80
2022-10-07T18:59:13.902Z,65.81
2022-10-07T19:01:50.284Z,66.05
2022-10-07T19:04:23.025Z,66.08
2022-10-07T19:06:54.989Z,66.18
2022-10-07T19:09:27.339Z,66.18
2022-10-07T19:11:59.289Z,66.38
2022-10-07T19:14:34.533Z,66.70
2022-10-07T19:17:06.497Z,67.11
2022-10-07T19:19:41.242Z,67.57
2022-10-07T19:22:14.544Z,67.63
2022-10-07T19:25:04.817Z,68.00
2022-10-07T19:27:37.065Z,67.68
2022-10-07T19:30:09.682Z,67.98
2022-10-07T19:32:41.646Z,67.78
2022-10-07T19:35:13.729Z,68.47
2022-10-07T19:37:46.458Z,68.40
2022-10-07T19:40:18.555Z,68.17
2022-10-07T19:42:50.476Z,68.39
2022-10-07T19:45:22.591Z,68.50
2022-10-07T19:47:54.528Z,68.88
2022-10-07T19:50:26.482Z,68.76
2022-10-07T19:53:00.114Z,68.65
2022-10-07T19:55:35.392Z,69.07
2022-10-07T19:58:07.439Z,69.46
2022-10-07T20:00:39.381Z,69.42
2022-10-07T20:03:11.451Z,69.73
2022-10-07T20:05:43.853Z,69.70
2022-10-07T20:08:15.818Z,69.37
2022-10-07T20:10:47.732Z,69.43
2022-10-07T20:13:19.953Z,69.82
2022-10-07T20:15:51.868Z,70.20
2022-10-07T20:18:23.821Z,69.74
2022-10-07T20:21:15.976Z,70.24
2022-10-07T20:23:48.648Z,70.43
2022-10-07T20:26:27.669Z,70.65
2022-10-07T20:29:02.437Z,70.37
2022-10-07T20:31:40.791Z,70.23
2022-10-07T20:34:16.415Z,70.55
2022-10-07T20:36:50.429Z,70.23
2022-10-07T20:39:41.271Z,70.43
2022-10-07T20:42:22.268Z,71.00
2022-10-07T20:44:54.651Z,71.43
2022-10-07T20:47:30.612Z,71.24
2022-10-07T20:50:03.754Z,71.37
2022-10-07T20:52:37.037Z,71.30
2022-10-07T20:55:11.602Z,71.22
2022-10-07T20:57:43.676Z,71.71
2022-10-07T21:00:16.964Z,71.64
2022-10-07T21:02:49.237Z,71.74
2022-10-07T21:05:21.697Z,71.52
2022-10-07T21:07:54.840Z,71.86
2022-10-07T21:10:26.928Z,71.65
2022-10-07T21:12:59.357Z,71.57
2022-10-07T21:15:31.481Z,72.00
2022-10-07T21:18:03.398Z,71.22
2022-10-07T21:20:36.209Z,71.70
2022-10-07T21:23:08.138Z,71.13
2022-10-07T21:25:40.096Z,71.52
2022-10-07T21:28:12.138Z,71.83
2022-10-07T21:30:46.057Z,71.49
2022-10-07T21:33:17.986Z,71.49
2022-10-07T21:35:49.946Z,72.21
2022-10-07T21:38:22.350Z,71.79
2022-10-07T21:40:54.843Z,71.60
2022-10-07T21:43:28.120Z,71.78
2022-10-07T21:46:00.244Z,72.31
2022-10-07T21:48:32.353Z,72.30
2022-10-07T21:51:09.361Z,71.96
2022-10-07T21:53:41.706Z,72.41
2022-10-07T21:56:13.704Z,72.68
2022-10-07T21:58:49.579Z,72.93
2022-10-07T22:01:24.257Z,72.92
2022-10-07T22:03:59.334Z,73.49
2022-10-07T22:06:50.976Z,73.20
2022-10-07T22:09:22.903Z,72.89
2022-10-07T22:11:54.925Z,73.01
2022-10-07T22:14:27.887Z,72.35
2022-10-07T22:16:59.864Z,72.79
2022-10-07T22:19:32.914Z,72.45
2022-10-07T22:22:04.970Z,72.40
2022-10-07T22:24:36.882Z,72.58
2022-10-07T22:27:08.859Z,72.70
2022-10-07T22:29:40.738Z,72.21
2022-10-07T22:32:12.726Z,72.85
2022-10-07T22:35:03.414Z,73.09
2022-10-07T22:37:35.373Z,72.88
2022-10-07T22:40:08.132Z,72.92
2022-10-07T22:42:40.057Z,73.45
2022-10-07T22:45:12.415Z,74.00
2022-10-07T22:47:44.459Z,73.78
2022-10-07T22:50:16.812Z,73.70
2022-10-07T22:52:49.390Z,74.28
2022-10-07T22:55:21.602Z,74.24
2022-10-07T22:57:53.719Z,74.53
2022-10-07T23:00:25.632Z,74.79
2022-10-07T23:02:57.747Z,74.81
2022-10-07T23:05:29.759Z,74.88
2022-10-07T23:08:01.947Z,74.96
2022-10-07T23:10:33.870Z,74.80
2022-10-07T23:13:05.836Z,75.84
2022-10-07T23:15:37.829Z,75.43
2022-10-07T23:18:10.323Z,75.55
2022-10-07T23:20:42.205Z,75.80
2022-10-07T23:23:14.152Z,75.65
2022-10-07T23:25:47.074Z,75.75
2022-10-07T23:28:21.693Z,75.72
2022-10-07T23:30:53.801Z,75.68
2022-10-07T23:33:25.901Z,75.84
2022-10-07T23:35:58.430Z,76.00
2022-10-07T23:38:30.453Z,76.19
2022-10-07T23:41:02.619Z,76.07
2022-10-07T23:43:34.613Z,76.42
2022-10-07T23:46:14.371Z,76.47
2022-10-07T23:48:47.133Z,75.94
2022-10-07T23:51:22.726Z,75.97
2022-10-07T23:53:59.222Z,75.81
2022-10-07T23:56:32.122Z,75.85
2022-10-07T23:59:04.094Z,75.69
